CheckWX is a tool to help pilots better visualize weather data.  It is not intended as a substitute for an official pre-flight weather briefing.

08:38:33 UTC

KPHL METAR
Philadelphia International Airport
Philadelphia, Pennsylvania, USA
Current

45 mins ago

KPHL 220754Z 31010KT 10SM BKN120 OVC180 08/M04 A3023 RMK AO2 SLP237 T00781039 $
Observed
Feb-22 @ 07:54 UTC
Wind
  • 310° at 10 KTS
Visibility
10 SM
Flight Rules
VFR
Cloud Levels
  • Broken at 12,000' AGL
  • Overcast at 18,000' AGL
Temperature
C / 46°F
Dewpoint
-4°C / 25°F
Humidity
43%
Altimeter
30.23" Hg
Pressure
1023.7 hPa
Previous

2 hours ago

KPHL 220654Z 28009KT 10SM BKN130 OVC180 08/M04 A3024 RMK AO2 SLP238 T00781044 $
Observed
Feb-22 @ 06:54 UTC
Wind
  • 280° at 9 KTS
Visibility
10 SM
Flight Rules
VFR
Cloud Levels
  • Broken at 13,000' AGL
  • Overcast at 18,000' AGL
Temperature
C / 46°F
Dewpoint
-4°C / 25°F
Humidity
43%
Altimeter
30.24" Hg
Pressure
1023.8 hPa
Previous

3 hours ago

KPHL 220554Z 28010KT 10SM BKN140 OVC200 08/M04 A3023 RMK AO2 SLP237 T00831039 10089 20072 53026 $
Observed
Feb-22 @ 05:54 UTC
Wind
  • 280° at 10 KTS
Visibility
10 SM
Flight Rules
VFR
Cloud Levels
  • Broken at 14,000' AGL
  • Overcast at 20,000' AGL
Temperature
C / 46°F
Dewpoint
-4°C / 25°F
Humidity
43%
Altimeter
30.23" Hg
Pressure
1023.7 hPa